Time,TemperatureF,DewpointF,PressureIn,WindDirection,WindDirectionDegrees,WindSpeedMPH,WindSpeedGustMPH,Humidity,HourlyPrecipIn,Conditions,Clouds,dailyrainin,SoftwareType,DateUTC
2013-01-21 00:03:00,57.8,55.5,30.15,SE,146,0.5,2.3,92,0.00,,FEW,0.00,WeatherDisplay:10.37,2013-01-21 06:03:00,
2013-01-21 00:08:00,57.8,55.5,30.15,SE,124,0.6,1.1,92,0.00,,FEW,0.00,WeatherDisplay:10.37,2013-01-21 06:08:00,
2013-01-21 00:13:00,57.7,55.4,30.15,SSE,155,0.4,1.1,92,0.00,,FEW,0.00,WeatherDisplay:10.37,2013-01-21 06:13:00,
2013-01-21 00:18:00,57.7,55.4,30.15,SE,140,0.5,2.1,92,0.00,,FEW,0.00,WeatherDisplay:10.37,2013-01-21 06:18:00,
2013-01-21 00:24:00,57.7,55.4,30.16,SE,142,1.4,2.3,92,0.00,,FEW,0.00,WeatherDisplay:10.37,2013-01-21 06:24:00,
2013-01-21 00:29:00,57.8,55.5,30.16,SE,140,0.2,1.1,92,0.00,,FEW,0.00,WeatherDisplay:10.37,2013-01-21 06:29:00,
2013-01-21 00:34:00,57.7,55.4,30.16,SSE,155,0.2,1.1,92,0.00,,FEW,0.00,WeatherDisplay:10.37,2013-01-21 06:34:00,
2013-01-21 00:39:00,57.8,55.5,30.16,SSE,147,0.5,2.3,92,0.00,,FEW,0.00,WeatherDisplay:10.37,2013-01-21 06:39:00,
2013-01-21 00:44:00,57.8,55.5,30.16,SE,144,0.0,1.1,92,0.00,,FEW,0.00,WeatherDisplay:10.37,2013-01-21 06:44:00,
2013-01-21 00:49:00,57.8,55.5,30.16,SE,144,0.0,0.0,92,0.00,,FEW,0.00,WeatherDisplay:10.37,2013-01-21 06:49:00,
2013-01-21 00:54:00,57.8,55.8,30.16,SE,146,0.0,1.1,93,0.00,,FEW,0.00,WeatherDisplay:10.37,2013-01-21 06:54:00,
2013-01-21 00:59:00,57.8,55.8,30.16,SE,142,0.1,1.1,93,0.00,,FEW,0.00,WeatherDisplay:10.37,2013-01-21 06:59:00,
2013-01-21 01:04:00,57.8,55.8,30.16,SE,141,0.1,1.1,93,0.00,,FEW,0.00,WeatherDisplay:10.37,2013-01-21 07:04:00,
2013-01-21 01:09:00,57.9,55.9,30.16,SE,140,0.2,1.1,93,0.00,,FEW,0.00,WeatherDisplay:10.37,2013-01-21 07:09:00,
2013-01-21 01:14:00,57.8,55.8,30.16,SE,138,0.1,1.1,93,0.00,,FEW,0.00,WeatherDisplay:10.37,2013-01-21 07:14:00,
2013-01-21 01:19:00,57.7,55.7,30.16,SE,131,0.1,1.1,93,0.00,,FEW,0.00,WeatherDisplay:10.37,2013-01-21 07:19:00,
2013-01-21 01:24:00,57.8,55.8,30.16,SE,142,0.9,1.1,93,0.00,,FEW,0.00,WeatherDisplay:10.37,2013-01-21 07:24:00,
2013-01-21 01:29:00,57.8,55.8,30.16,SE,137,0.7,2.3,93,0.00,,FEW,0.00,WeatherDisplay:10.37,2013-01-21 07:29:00,
2013-01-21 01:34:00,57.8,55.8,30.16,SE,144,0.3,0.0,93,0.00,,FEW,0.00,WeatherDisplay:10.37,2013-01-21 07:34:00,
2013-01-21 01:39:00,57.8,55.8,30.16,SE,142,0.0,0.0,93,0.00,,FEW,0.00,WeatherDisplay:10.37,2013-01-21 07:39:00,
2013-01-21 01:44:00,57.8,55.8,30.16,SE,142,0.0,0.0,93,0.00,,FEW,0.00,WeatherDisplay:10.37,2013-01-21 07:44:00,
2013-01-21 01:49:00,57.7,55.7,30.15,SE,142,0.0,1.1,93,0.00,,FEW,0.00,WeatherDisplay:10.37,2013-01-21 07:49:00,
2013-01-21 01:54:00,57.5,55.5,30.15,SE,142,0.0,0.0,93,0.00,,FEW,0.00,WeatherDisplay:10.37,2013-01-21 07:54:00,
2013-01-21 01:59:00,57.2,55.2,30.15,SE,141,0.0,0.0,93,0.00,,FEW,0.00,WeatherDisplay:10.37,2013-01-21 07:59:00,
2013-01-21 02:04:00,57.0,55.0,30.15,SE,142,0.0,0.0,93,0.00,,FEW,0.00,WeatherDisplay:10.37,2013-01-21 08:04:00,
2013-01-21 02:09:00,56.8,54.8,30.14,SE,142,0.0,0.0,93,0.00,,FEW,0.00,WeatherDisplay:10.37,2013-01-21 08:09:00,
2013-01-21 02:14:00,56.7,55.0,30.14,SE,142,0.0,0.0,94,0.00,,FEW,0.00,WeatherDisplay:10.37,2013-01-21 08:14:00,
2013-01-21 02:19:00,56.7,55.0,30.14,SE,141,0.0,0.0,94,0.00,,FEW,0.00,WeatherDisplay:10.37,2013-01-21 08:19:00,
2013-01-21 02:24:00,56.6,54.9,30.14,SE,142,0.0,1.1,94,0.00,,FEW,0.00,WeatherDisplay:10.37,2013-01-21 08:24:00,
2013-01-21 02:29:00,56.6,54.9,30.14,SE,141,0.0,0.0,94,0.00,,FEW,0.00,WeatherDisplay:10.37,2013-01-21 08:29:00,
2013-01-21 02:34:00,56.4,54.4,30.14,SE,141,0.0,0.0,93,0.00,,FEW,0.00,WeatherDisplay:10.37,2013-01-21 08:34:00,
2013-01-21 02:39:00,56.4,54.7,30.14,SE,142,0.0,0.0,94,0.00,,FEW,0.00,WeatherDisplay:10.37,2013-01-21 08:39:00,
2013-01-21 02:44:00,56.5,54.8,30.14,SE,142,0.0,0.0,94,0.00,,FEW,0.00,WeatherDisplay:10.37,2013-01-21 08:44:00,
2013-01-21 02:49:00,56.6,54.9,30.14,SE,142,0.0,1.1,94,0.00,,FEW,0.00,WeatherDisplay:10.37,2013-01-21 08:49:00,
2013-01-21 02:54:00,56.7,55.0,30.14,SE,142,0.0,0.0,94,0.00,,FEW,0.00,WeatherDisplay:10.37,2013-01-21 08:54:00,
2013-01-21 02:59:00,56.8,55.1,30.14,SE,142,0.0,0.0,94,0.00,,FEW,0.00,WeatherDisplay:10.37,2013-01-21 08:59:00,
2013-01-21 03:04:00,56.9,55.2,30.14,SE,141,0.1,1.1,94,0.00,,FEW,0.00,WeatherDisplay:10.37,2013-01-21 09:04:00,
2013-01-21 03:09:00,57.0,55.3,30.14,SE,142,0.0,0.0,94,0.00,,FEW,0.00,WeatherDisplay:10.37,2013-01-21 09:09:00,
2013-01-21 03:14:00,57.0,55.3,30.15,SE,141,0.0,0.0,94,0.00,,FEW,0.00,WeatherDisplay:10.37,2013-01-21 09:14:00,
2013-01-21 03:19:00,57.0,55.3,30.14,SE,142,0.1,0.0,94,0.00,,FEW,0.00,WeatherDisplay:10.37,2013-01-21 09:19:00,
2013-01-21 03:24:00,57.0,55.3,30.14,SE,142,0.0,0.0,94,0.00,,FEW,0.00,WeatherDisplay:10.37,2013-01-21 09:24:00,
2013-01-21 03:29:00,56.9,54.9,30.14,SE,141,0.0,0.0,93,0.00,,FEW,0.00,WeatherDisplay:10.37,2013-01-21 09:29:00,
2013-01-21 03:34:00,56.5,54.5,30.14,SE,142,0.0,0.0,93,0.00,,FEW,0.00,WeatherDisplay:10.37,2013-01-21 09:34:00,
2013-01-21 03:39:00,56.0,54.0,30.14,SE,142,0.0,0.0,93,0.00,,FEW,0.00,WeatherDisplay:10.37,2013-01-21 09:39:00,
2013-01-21 03:44:00,55.8,54.1,30.14,SE,142,0.0,0.0,94,0.00,,FEW,0.00,WeatherDisplay:10.37,2013-01-21 09:44:00,
2013-01-21 03:49:00,55.6,53.9,30.14,SE,142,0.0,0.0,94,0.00,,FEW,0.00,WeatherDisplay:10.37,2013-01-21 09:49:00,
2013-01-21 03:54:00,55.5,53.8,30.14,SE,141,0.0,0.0,94,0.00,,FEW,0.00,WeatherDisplay:10.37,2013-01-21 09:54:00,
2013-01-21 03:59:00,55.3,53.9,30.13,SE,142,0.0,0.0,95,0.00,,FEW,0.00,WeatherDisplay:10.37,2013-01-21 09:59:00,
2013-01-21 04:04:00,55.2,53.8,30.13,SE,141,0.0,0.0,95,0.00,,FEW,0.00,WeatherDisplay:10.37,2013-01-21 10:04:00,
2013-01-21 04:09:00,55.0,53.6,30.13,SE,142,0.0,0.0,95,0.00,,FEW,0.00,WeatherDisplay:10.37,2013-01-21 10:09:00,
2013-01-21 04:14:00,54.8,53.4,30.13,SE,141,0.0,0.0,95,0.00,,FEW,0.00,WeatherDisplay:10.37,2013-01-21 10:14:00,
2013-01-21 04:19:00,54.8,53.4,30.13,SE,142,0.0,0.0,95,0.00,,FEW,0.00,WeatherDisplay:10.37,2013-01-21 10:19:00,
2013-01-21 04:24:00,54.7,53.3,30.14,SE,141,0.0,0.0,95,0.00,,FEW,0.00,WeatherDisplay:10.37,2013-01-21 10:24:00,
2013-01-21 04:29:00,54.6,53.2,30.14,SE,142,0.0,0.0,95,0.00,,FEW,0.00,WeatherDisplay:10.37,2013-01-21 10:29:00,
2013-01-21 04:34:00,54.3,52.9,30.14,SE,142,0.0,0.0,95,0.00,,FEW,0.00,WeatherDisplay:10.37,2013-01-21 10:34:00,
2013-01-21 04:39:00,54.1,52.7,30.14,SE,142,0.0,0.0,95,0.00,,FEW,0.00,WeatherDisplay:10.37,2013-01-21 10:39:00,
2013-01-21 04:44:00,53.7,52.3,30.14,SE,141,0.0,0.0,95,0.00,,FEW,0.00,WeatherDisplay:10.37,2013-01-21 10:44:00,
2013-01-21 04:49:00,53.4,52.0,30.14,SE,141,0.0,0.0,95,0.00,,FEW,0.00,WeatherDisplay:10.37,2013-01-21 10:49:00,
2013-01-21 04:54:00,53.1,51.7,30.14,SE,142,0.0,0.0,95,0.00,,FEW,0.00,WeatherDisplay:10.37,2013-01-21 10:54:00,
2013-01-21 04:59:00,52.9,52.9,30.14,SE,142,0.0,0.0,100,0.00,,FEW,0.00,WeatherDisplay:10.37,2013-01-21 10:59:00,
2013-01-21 05:04:00,52.7,52.7,30.14,SE,142,0.0,0.0,100,0.00,,FEW,0.00,WeatherDisplay:10.37,2013-01-21 11:04:00,
2013-01-21 05:09:00,52.5,52.5,30.14,SE,142,0.0,0.0,100,0.00,,FEW,0.00,WeatherDisplay:10.37,2013-01-21 11:09:00,
2013-01-21 05:14:00,52.3,52.3,30.13,SE,142,0.0,0.0,100,0.00,,FEW,0.00,WeatherDisplay:10.37,2013-01-21 11:14:00,
2013-01-21 05:19:00,52.5,52.5,30.13,SE,142,0.0,0.0,100,0.00,,FEW,0.00,WeatherDisplay:10.37,2013-01-21 11:19:00,
2013-01-21 05:24:00,52.5,52.5,30.13,SE,141,0.0,0.0,100,0.00,,FEW,0.00,WeatherDisplay:10.37,2013-01-21 11:24:00,
2013-01-21 05:29:00,52.4,52.4,30.13,SE,142,0.0,0.0,100,0.00,,FEW,0.00,WeatherDisplay:10.37,2013-01-21 11:29:00,
2013-01-21 05:34:00,52.3,52.3,30.13,SE,142,0.0,0.0,100,0.00,,FEW,0.00,WeatherDisplay:10.37,2013-01-21 11:34:00,
2013-01-21 05:39:00,52.2,52.2,30.13,SE,142,0.0,0.0,100,0.00,,FEW,0.00,WeatherDisplay:10.37,2013-01-21 11:39:00,
2013-01-21 05:44:00,52.2,52.2,30.14,SE,142,0.0,0.0,100,0.00,,FEW,0.00,WeatherDisplay:10.37,2013-01-21 11:44:00,
2013-01-21 05:49:00,52.3,52.3,30.14,SE,142,0.0,0.0,100,0.00,,FEW,0.00,WeatherDisplay:10.37,2013-01-21 11:49:00,
2013-01-21 05:54:00,52.5,52.5,30.14,SE,142,0.0,0.0,100,0.00,,FEW,0.00,WeatherDisplay:10.37,2013-01-21 11:54:00,
2013-01-21 05:59:00,52.5,52.5,30.14,SE,141,0.0,0.0,100,0.00,,FEW,0.00,WeatherDisplay:10.37,2013-01-21 11:59:00,
2013-01-21 06:04:00,52.4,52.4,30.14,SE,142,0.0,0.0,100,0.00,,FEW,0.00,WeatherDisplay:10.37,2013-01-21 12:04:00,
2013-01-21 06:09:00,52.2,52.2,30.14,SE,142,0.0,0.0,100,0.00,,FEW,0.00,WeatherDisplay:10.37,2013-01-21 12:09:00,
2013-01-21 06:14:00,51.8,51.8,30.14,SE,141,0.0,0.0,100,0.00,,FEW,0.00,WeatherDisplay:10.37,2013-01-21 12:14:00,
2013-01-21 06:19:00,51.6,51.6,30.14,SE,141,0.0,0.0,100,0.00,,FEW,0.00,WeatherDisplay:10.37,2013-01-21 12:19:00,
2013-01-21 06:24:00,51.8,51.8,30.14,SE,142,0.0,0.0,100,0.00,,FEW,0.00,WeatherDisplay:10.37,2013-01-21 12:24:00,
2013-01-21 06:29:00,51.9,51.9,30.15,SE,142,0.0,0.0,100,0.00,,FEW,0.00,WeatherDisplay:10.37,2013-01-21 12:29:00,
2013-01-21 06:34:00,52.0,52.0,30.15,SE,142,0.0,0.0,100,0.00,,FEW,0.00,WeatherDisplay:10.37,2013-01-21 12:34:00,
2013-01-21 06:39:00,52.2,52.2,30.15,SE,142,0.0,0.0,100,0.00,,FEW,0.00,WeatherDisplay:10.37,2013-01-21 12:39:00,
2013-01-21 06:44:00,52.5,52.5,30.15,SE,142,0.0,0.0,100,0.00,,FEW,0.00,WeatherDisplay:10.37,2013-01-21 12:44:00,
2013-01-21 06:49:00,52.7,52.7,30.15,SE,141,0.0,0.0,100,0.00,,FEW,0.00,WeatherDisplay:10.37,2013-01-21 12:49:00,
2013-01-21 06:54:00,52.8,52.8,30.15,SE,142,0.0,0.0,100,0.00,,FEW,0.00,WeatherDisplay:10.37,2013-01-21 12:54:00,
2013-01-21 06:59:00,52.8,52.8,30.15,SE,142,0.0,0.0,100,0.00,,FEW,0.00,WeatherDisplay:10.37,2013-01-21 12:59:00,
2013-01-21 07:04:00,52.8,52.8,30.15,SE,141,0.0,0.0,100,0.00,,FEW,0.00,WeatherDisplay:10.37,2013-01-21 13:04:00,
2013-01-21 07:09:00,53.0,53.0,30.16,SE,142,0.0,0.0,100,0.00,,FEW,0.00,WeatherDisplay:10.37,2013-01-21 13:09:00,
2013-01-21 07:14:00,53.1,53.1,30.16,SE,142,0.0,0.0,100,0.00,,FEW,0.00,WeatherDisplay:10.37,2013-01-21 13:14:00,
2013-01-21 07:19:00,53.1,53.1,30.16,SE,141,0.0,0.0,100,0.00,,FEW,0.00,WeatherDisplay:10.37,2013-01-21 13:19:00,
2013-01-21 07:24:00,53.0,53.0,30.16,SE,142,0.0,0.0,100,0.00,,FEW,0.00,WeatherDisplay:10.37,2013-01-21 13:24:00,
2013-01-21 07:29:00,52.8,52.8,30.17,SE,142,0.0,0.0,100,0.00,,FEW,0.00,WeatherDisplay:10.37,2013-01-21 13:29:00,
2013-01-21 07:34:00,52.9,52.9,30.17,SE,142,0.0,0.0,100,0.00,,FEW,0.00,WeatherDisplay:10.37,2013-01-21 13:34:00,
2013-01-21 07:39:00,52.8,52.8,30.17,SE,142,0.0,0.0,100,0.00,,FEW,0.00,WeatherDisplay:10.37,2013-01-21 13:39:00,
2013-01-21 07:44:00,52.8,52.8,30.17,SE,142,0.0,0.0,100,0.00,,FEW,0.00,WeatherDisplay:10.37,2013-01-21 13:44:00,
2013-01-21 07:49:00,52.8,52.8,30.17,SE,141,0.0,0.0,100,0.00,,FEW,0.00,WeatherDisplay:10.37,2013-01-21 13:49:00,
2013-01-21 07:54:00,52.9,52.9,30.18,SE,142,0.0,0.0,100,0.00,,FEW,0.00,WeatherDisplay:10.37,2013-01-21 13:54:00,
2013-01-21 07:59:00,53.0,53.0,30.18,SE,141,0.0,0.0,100,0.00,,FEW,0.00,WeatherDisplay:10.37,2013-01-21 13:59:00,
2013-01-21 08:04:00,53.2,53.2,30.18,SE,142,0.0,0.0,100,0.00,CLR,FEW,0.00,WeatherDisplay:10.37,2013-01-21 14:04:00,
2013-01-21 08:09:00,53.5,53.5,30.18,SE,142,0.0,0.0,100,0.00,CLR,FEW,0.00,WeatherDisplay:10.37,2013-01-21 14:09:00,
2013-01-21 08:14:00,53.8,53.8,30.19,SE,141,0.0,0.0,100,0.00,CLR,FEW,0.00,WeatherDisplay:10.37,2013-01-21 14:14:00,
2013-01-21 08:19:00,54.3,54.3,30.19,SE,142,0.0,0.0,100,0.00,CLR,FEW,0.00,WeatherDisplay:10.37,2013-01-21 14:19:00,
2013-01-21 08:24:00,54.8,54.8,30.20,SE,141,0.0,0.0,100,0.00,CLR,FEW,0.00,WeatherDisplay:10.37,2013-01-21 14:24:00,
2013-01-21 08:29:00,55.2,55.2,30.20,SE,142,0.0,0.0,100,0.00,CLR,FEW,0.00,WeatherDisplay:10.37,2013-01-21 14:29:00,
2013-01-21 08:34:00,55.6,55.6,30.20,SE,142,0.0,0.0,100,0.00,CLR,FEW,0.00,WeatherDisplay:10.37,2013-01-21 14:34:00,
2013-01-21 08:39:00,56.3,56.3,30.20,SE,142,0.0,0.0,100,0.00,CLR,FEW,0.00,WeatherDisplay:10.37,2013-01-21 14:39:00,
2013-01-21 08:44:00,56.9,56.9,30.21,SE,141,0.0,0.0,100,0.00,CLR,FEW,0.00,WeatherDisplay:10.37,2013-01-21 14:44:00,
2013-01-21 08:49:00,57.4,57.4,30.21,SE,142,0.0,0.0,100,0.00,CLR,FEW,0.00,WeatherDisplay:10.37,2013-01-21 14:49:00,
2013-01-21 08:54:00,58.1,58.1,30.21,SE,141,0.0,0.0,100,0.00,CLR,FEW,0.00,WeatherDisplay:10.37,2013-01-21 14:54:00,
2013-01-21 08:59:00,58.7,58.7,30.21,SE,142,0.0,1.1,100,0.00,CLR,FEW,0.00,WeatherDisplay:10.37,2013-01-21 14:59:00,
2013-01-21 09:04:00,59.3,59.3,30.22,SE,141,0.0,0.0,100,0.00,CLR,FEW,0.00,WeatherDisplay:10.37,2013-01-21 15:04:00,
2013-01-21 09:09:00,59.7,59.7,30.22,SE,142,0.0,0.0,100,0.00,CLR,FEW,0.00,WeatherDisplay:10.37,2013-01-21 15:09:00,
2013-01-21 09:14:00,60.0,60.0,30.22,ESE,121,0.0,0.0,100,0.00,CLR,FEW,0.00,WeatherDisplay:10.37,2013-01-21 15:14:00,
2013-01-21 09:19:00,60.4,60.4,30.23,ESE,121,0.4,1.1,100,0.00,CLR,FEW,0.00,WeatherDisplay:10.37,2013-01-21 15:19:00,
2013-01-21 09:24:00,60.8,60.8,30.23,ESE,121,0.0,0.0,100,0.00,CLR,FEW,0.00,WeatherDisplay:10.37,2013-01-21 15:24:00,
2013-01-21 09:29:00,61.2,61.2,30.23,ESE,120,0.1,2.3,100,0.00,CLR,FEW,0.00,WeatherDisplay:10.37,2013-01-21 15:29:00,
2013-01-21 09:34:00,61.5,61.5,30.23,ESE,108,0.1,1.1,100,0.00,CLR,FEW,0.00,WeatherDisplay:10.37,2013-01-21 15:34:00,
2013-01-21 09:39:00,62.0,62.0,30.23,ESE,107,0.0,1.1,100,0.00,CLR,FEW,0.00,WeatherDisplay:10.37,2013-01-21 15:39:00,
2013-01-21 09:44:00,62.5,61.0,30.24,ESE,102,0.5,1.1,95,0.00,CLR,FEW,0.00,WeatherDisplay:10.37,2013-01-21 15:44:00,
2013-01-21 09:49:00,63.2,61.7,30.24,ESE,102,0.0,1.1,95,0.00,CLR,FEW,0.00,WeatherDisplay:10.37,2013-01-21 15:49:00,
2013-01-21 09:54:00,63.9,61.8,30.24,ESE,122,0.8,0.0,93,0.00,CLR,FEW,0.00,WeatherDisplay:10.37,2013-01-21 15:54:00,
2013-01-21 09:59:00,64.7,62.0,30.24,ESE,113,0.0,1.1,91,0.00,CLR,FEW,0.00,WeatherDisplay:10.37,2013-01-21 15:59:00,
2013-01-21 10:04:00,65.7,62.0,30.24,SE,128,1.1,3.2,88,0.00,CLR,FEW,0.00,WeatherDisplay:10.37,2013-01-21 16:04:00,
2013-01-21 10:09:00,66.2,61.6,30.24,ESE,114,0.1,1.1,85,0.00,CLR,FEW,0.00,WeatherDisplay:10.37,2013-01-21 16:09:00,
2013-01-21 10:14:00,66.8,61.1,30.25,East,96,0.6,2.3,82,0.00,CLR,FEW,0.00,WeatherDisplay:10.37,2013-01-21 16:14:00,
2013-01-21 10:19:00,67.2,61.2,30.25,ENE,59,0.1,2.3,81,0.00,CLR,FEW,0.00,WeatherDisplay:10.37,2013-01-21 16:19:00,
2013-01-21 10:24:00,67.4,60.7,30.25,East,100,3.7,5.8,79,0.00,CLR,FEW,0.00,WeatherDisplay:10.37,2013-01-21 16:24:00,
2013-01-21 10:29:00,67.5,60.8,30.25,ESE,116,0.0,2.3,79,0.00,CLR,FEW,0.00,WeatherDisplay:10.37,2013-01-21 16:29:00,
2013-01-21 10:34:00,67.6,60.9,30.25,ESE,114,0.2,4.6,79,0.00,CLR,FEW,0.00,WeatherDisplay:10.37,2013-01-21 16:34:00,
2013-01-21 10:39:00,68.0,60.9,30.25,ESE,111,0.7,3.5,78,0.00,CLR,FEW,0.00,WeatherDisplay:10.37,2013-01-21 16:39:00,
2013-01-21 10:44:00,68.0,60.9,30.25,East,87,0.8,5.8,78,0.00,CLR,FEW,0.00,WeatherDisplay:10.37,2013-01-21 16:44:00,
2013-01-21 10:49:00,67.9,60.8,30.25,ESE,118,3.8,3.8,78,0.00,CLR,FEW,0.00,WeatherDisplay:10.37,2013-01-21 16:49:00,
2013-01-21 10:54:00,67.7,60.6,30.25,East,94,0.4,3.5,78,0.00,CLR,FEW,0.00,WeatherDisplay:10.37,2013-01-21 16:54:00,
2013-01-21 10:59:00,67.7,60.6,30.25,East,96,4.6,5.8,78,0.00,CLR,FEW,0.00,WeatherDisplay:10.37,2013-01-21 16:59:00,
2013-01-21 11:04:00,67.4,60.7,30.25,ENE,58,2.7,3.5,79,0.00,CLR,FEW,0.00,WeatherDisplay:10.37,2013-01-21 17:04:00,
2013-01-21 11:09:00,67.4,60.7,30.25,ESE,105,4.8,5.3,79,0.00,CLR,FEW,0.00,WeatherDisplay:10.37,2013-01-21 17:09:00,
2013-01-21 11:14:00,67.2,60.8,30.25,NE,53,1.5,3.5,80,0.00,CLR,FEW,0.00,WeatherDisplay:10.37,2013-01-21 17:14:00,
2013-01-21 11:19:00,67.6,60.9,30.25,East,96,2.8,4.2,79,0.00,CLR,FEW,0.00,WeatherDisplay:10.37,2013-01-21 17:19:00,
2013-01-21 11:24:00,67.6,60.9,30.25,SE,142,1.7,4.6,79,0.00,CLR,FEW,0.00,WeatherDisplay:10.37,2013-01-21 17:24:00,
2013-01-21 11:29:00,67.6,60.9,30.24,ESE,115,3.1,5.8,79,0.00,CLR,FEW,0.00,WeatherDisplay:10.37,2013-01-21 17:29:00,
2013-01-21 11:34:00,67.7,61.0,30.24,East,98,2.8,3.5,79,0.00,CLR,FEW,0.00,WeatherDisplay:10.37,2013-01-21 17:34:00,
2013-01-21 11:39:00,67.5,60.8,30.25,ESE,116,3.3,3.5,79,0.00,CLR,FEW,0.00,WeatherDisplay:10.37,2013-01-21 17:39:00,
2013-01-21 11:44:00,67.0,60.3,30.24,East,90,2.8,6.9,79,0.00,CLR,FEW,0.00,WeatherDisplay:10.37,2013-01-21 17:44:00,
2013-01-21 11:49:00,66.8,60.1,30.24,East,98,2.7,5.8,79,0.00,CLR,FEW,0.00,WeatherDisplay:10.37,2013-01-21 17:49:00,
2013-01-21 11:54:00,66.8,60.4,30.24,ESE,116,2.4,8.1,80,0.00,CLR,FEW,0.00,WeatherDisplay:10.37,2013-01-21 17:54:00,
2013-01-21 11:59:00,67.1,60.4,30.23,ESE,105,3.8,4.6,79,0.00,CLR,FEW,0.00,WeatherDisplay:10.37,2013-01-21 17:59:00,
2013-01-21 12:04:00,67.1,60.0,30.23,ESE,106,0.9,5.8,78,0.00,,FEW,0.00,WeatherDisplay:10.37,2013-01-21 18:04:00,
2013-01-21 12:09:00,67.6,60.5,30.23,East,98,3.8,5.8,78,0.00,,FEW,0.00,WeatherDisplay:10.37,2013-01-21 18:09:00,
2013-01-21 12:14:00,67.7,60.2,30.23,East,80,4.8,5.8,77,0.00,,FEW,0.00,WeatherDisplay:10.37,2013-01-21 18:14:00,
2013-01-21 12:19:00,68.1,60.2,30.22,ESE,113,6.3,6.3,76,0.00,,FEW,0.00,WeatherDisplay:10.37,2013-01-21 18:19:00,
2013-01-21 12:24:00,68.3,60.4,30.22,ENE,71,10.4,10.4,76,0.00,,FEW,0.00,WeatherDisplay:10.37,2013-01-21 18:24:00,
2013-01-21 12:29:00,68.4,60.5,30.22,SE,132,2.2,8.1,76,0.00,,FEW,0.00,WeatherDisplay:10.37,2013-01-21 18:29:00,
2013-01-21 12:34:00,68.7,60.5,30.21,SE,145,5.4,8.1,75,0.00,,FEW,0.00,WeatherDisplay:10.37,2013-01-21 18:34:00,
2013-01-21 12:39:00,69.2,60.9,30.21,ESE,120,2.4,5.8,75,0.00,,FEW,0.00,WeatherDisplay:10.37,2013-01-21 18:39:00,
2013-01-21 12:44:00,69.0,60.4,30.21,East,88,2.0,6.9,74,0.00,,FEW,0.00,WeatherDisplay:10.37,2013-01-21 18:44:00,
2013-01-21 12:49:00,68.8,60.2,30.20,SE,125,3.6,3.6,74,0.00,,FEW,0.00,WeatherDisplay:10.37,2013-01-21 18:49:00,
2013-01-21 12:54:00,68.9,60.3,30.20,ENE,77,2.9,8.1,74,0.00,,FEW,0.00,WeatherDisplay:10.37,2013-01-21 18:54:00,
2013-01-21 12:59:00,68.8,60.2,30.20,East,90,1.8,8.1,74,0.00,,FEW,0.00,WeatherDisplay:10.37,2013-01-21 18:59:00,
2013-01-21 13:04:00,68.7,60.8,30.19,East,100,2.4,5.8,76,0.00,,FEW,0.00,WeatherDisplay:10.37,2013-01-21 19:04:00,
2013-01-21 13:09:00,68.5,60.3,30.19,East,95,4.5,4.5,75,0.00,,FEW,0.00,WeatherDisplay:10.37,2013-01-21 19:09:00,
2013-01-21 13:14:00,68.5,60.6,30.19,NE,50,6.7,6.7,76,0.00,,FEW,0.00,WeatherDisplay:10.37,2013-01-21 19:14:00,
2013-01-21 13:19:00,68.5,60.6,30.19,East,85,2.2,5.8,76,0.00,,FEW,0.00,WeatherDisplay:10.37,2013-01-21 19:19:00,
2013-01-21 13:24:00,68.7,60.8,30.19,SE,128,0.7,3.5,76,0.00,,FEW,0.00,WeatherDisplay:10.37,2013-01-21 19:24:00,
2013-01-21 13:29:00,69.0,60.4,30.19,ESE,102,3.9,3.9,74,0.00,,FEW,0.00,WeatherDisplay:10.37,2013-01-21 19:29:00,
2013-01-21 13:34:00,68.8,60.2,30.18,East,98,3.5,5.8,74,0.00,,FEW,0.00,WeatherDisplay:10.37,2013-01-21 19:34:00,
2013-01-21 13:39:00,68.4,60.5,30.18,ESE,103,3.7,8.1,76,0.00,,FEW,0.00,WeatherDisplay:10.37,2013-01-21 19:39:00,
2013-01-21 13:44:00,68.2,60.3,30.18,ESE,116,2.6,3.5,76,0.00,,FEW,0.00,WeatherDisplay:10.37,2013-01-21 19:44:00,
2013-01-21 13:49:00,68.2,60.3,30.18,ESE,102,1.8,3.5,76,0.00,,FEW,0.00,WeatherDisplay:10.37,2013-01-21 19:49:00,
2013-01-21 13:54:00,68.2,60.3,30.18,East,98,3.8,8.1,76,0.00,,FEW,0.00,WeatherDisplay:10.37,2013-01-21 19:54:00,
2013-01-21 13:59:00,68.0,60.2,30.18,ESE,112,3.6,5.8,76,0.00,,FEW,0.00,WeatherDisplay:10.37,2013-01-21 19:59:00,
2013-01-21 14:04:00,68.5,60.3,30.18,East,87,1.6,3.5,75,0.00,,FEW,0.00,WeatherDisplay:10.37,2013-01-21 20:04:00,
2013-01-21 14:09:00,68.7,60.1,30.17,ENE,71,2.8,5.6,74,0.00,,FEW,0.00,WeatherDisplay:10.37,2013-01-21 20:09:00,
2013-01-21 14:14:00,68.7,60.1,30.17,ESE,118,2.8,8.1,74,0.00,,FEW,0.00,WeatherDisplay:10.37,2013-01-21 20:14:00,
2013-01-21 14:19:00,68.3,60.1,30.17,ESE,115,3.4,4.6,75,0.00,,FEW,0.00,WeatherDisplay:10.37,2013-01-21 20:19:00,
2013-01-21 14:24:00,68.3,60.4,30.17,SE,131,1.2,3.2,76,0.00,,FEW,0.00,WeatherDisplay:10.37,2013-01-21 20:24:00,
2013-01-21 14:29:00,68.5,60.3,30.17,East,81,4.1,5.8,75,0.00,,FEW,0.00,WeatherDisplay:10.37,2013-01-21 20:29:00,
2013-01-21 14:34:00,68.4,60.5,30.17,ESE,105,0.5,4.2,76,0.00,,FEW,0.00,WeatherDisplay:10.37,2013-01-21 20:34:00,
2013-01-21 14:39:00,68.7,60.5,30.17,East,85,0.8,2.3,75,0.00,,FEW,0.00,WeatherDisplay:10.37,2013-01-21 20:39:00,
2013-01-21 14:44:00,68.8,60.2,30.17,ESE,112,0.4,5.8,74,0.00,,FEW,0.00,WeatherDisplay:10.37,2013-01-21 20:44:00,
2013-01-21 14:49:00,68.6,59.6,30.17,ESE,106,4.1,9.2,73,0.00,,FEW,0.00,WeatherDisplay:10.37,2013-01-21 20:49:00,
2013-01-21 14:54:00,68.5,59.5,30.17,ESE,106,3.7,6.9,73,0.00,,FEW,0.00,WeatherDisplay:10.37,2013-01-21 20:54:00,
2013-01-21 14:59:00,68.3,60.1,30.17,ESE,113,1.3,4.6,75,0.00,,FEW,0.00,WeatherDisplay:10.37,2013-01-21 20:59:00,
2013-01-21 15:04:00,68.6,60.4,30.16,ESE,111,0.7,4.6,75,0.00,,FEW,0.00,WeatherDisplay:10.37,2013-01-21 21:04:00,
2013-01-21 15:09:00,68.6,59.6,30.16,ESE,103,3.9,5.8,73,0.00,,FEW,0.00,WeatherDisplay:10.37,2013-01-21 21:09:00,
2013-01-21 15:14:00,68.2,59.6,30.17,ESE,106,4.8,8.1,74,0.00,,FEW,0.00,WeatherDisplay:10.37,2013-01-21 21:14:00,
2013-01-21 15:19:00,68.0,59.8,30.16,SE,130,0.6,1.1,75,0.00,,FEW,0.00,WeatherDisplay:10.37,2013-01-21 21:19:00,
2013-01-21 15:24:00,68.1,59.9,30.17,NE,54,1.7,5.8,75,0.00,,FEW,0.00,WeatherDisplay:10.37,2013-01-21 21:24:00,
2013-01-21 15:29:00,68.2,60.0,30.17,ESE,109,0.8,4.6,75,0.00,,FEW,0.00,WeatherDisplay:10.37,2013-01-21 21:29:00,
2013-01-21 15:34:00,68.1,59.5,30.17,ENE,70,2.2,3.5,74,0.00,,FEW,0.00,WeatherDisplay:10.37,2013-01-21 21:34:00,
2013-01-21 15:39:00,67.8,59.6,30.17,ESE,104,1.1,3.5,75,0.00,,FEW,0.00,WeatherDisplay:10.37,2013-01-21 21:39:00,
2013-01-21 15:44:00,67.5,59.3,30.17,ENE,77,4.2,5.8,75,0.00,,FEW,0.00,WeatherDisplay:10.37,2013-01-21 21:44:00,
2013-01-21 15:49:00,67.6,59.4,30.17,East,87,2.6,4.6,75,0.00,,FEW,0.00,WeatherDisplay:10.37,2013-01-21 21:49:00,
2013-01-21 15:54:00,67.9,59.7,30.17,East,99,2.8,5.8,75,0.00,,FEW,0.00,WeatherDisplay:10.37,2013-01-21 21:54:00,
2013-01-21 15:59:00,68.0,59.4,30.17,ESE,115,0.8,2.3,74,0.00,,FEW,0.00,WeatherDisplay:10.37,2013-01-21 21:59:00,
2013-01-21 16:04:00,68.1,58.7,30.16,East,87,3.9,9.2,72,0.00,,FEW,0.00,WeatherDisplay:10.37,2013-01-21 22:04:00,
2013-01-21 16:09:00,68.2,58.8,30.16,SE,135,4.0,6.3,72,0.00,,FEW,0.00,WeatherDisplay:10.37,2013-01-21 22:09:00,
2013-01-21 16:14:00,68.2,58.4,30.17,SE,132,2.5,6.9,71,0.00,,FEW,0.00,WeatherDisplay:10.37,2013-01-21 22:14:00,
2013-01-21 16:19:00,68.0,58.6,30.17,ESE,115,2.3,3.5,72,0.00,,FEW,0.00,WeatherDisplay:10.37,2013-01-21 22:19:00,
2013-01-21 16:24:00,68.0,58.2,30.17,ESE,112,1.5,3.5,71,0.00,,FEW,0.00,WeatherDisplay:10.37,2013-01-21 22:24:00,
2013-01-21 16:29:00,67.8,58.4,30.17,ESE,123,0.7,1.1,72,0.00,,FEW,0.00,WeatherDisplay:10.37,2013-01-21 22:29:00,
2013-01-21 16:34:00,67.9,58.5,30.17,ESE,109,3.8,5.8,72,0.00,,FEW,0.00,WeatherDisplay:10.37,2013-01-21 22:34:00,
2013-01-21 16:39:00,67.8,58.8,30.17,ESE,119,2.6,4.6,73,0.00,,FEW,0.00,WeatherDisplay:10.37,2013-01-21 22:39:00,
2013-01-21 16:44:00,67.5,58.5,30.17,ESE,104,0.7,5.8,73,0.00,,FEW,0.00,WeatherDisplay:10.37,2013-01-21 22:44:00,
2013-01-21 16:49:00,67.2,58.6,30.17,ESE,116,2.0,5.8,74,0.00,,FEW,0.00,WeatherDisplay:10.37,2013-01-21 22:49:00,
2013-01-21 16:54:00,66.9,58.7,30.17,ESE,113,1.2,3.5,75,0.00,,FEW,0.00,WeatherDisplay:10.37,2013-01-21 22:54:00,
2013-01-21 16:59:00,66.6,59.2,30.17,SE,126,0.4,2.3,77,0.00,,FEW,0.00,WeatherDisplay:10.37,2013-01-21 22:59:00,
2013-01-21 17:04:00,66.5,59.1,30.17,ESE,112,1.1,2.3,77,0.00,,FEW,0.00,WeatherDisplay:10.37,2013-01-21 23:04:00,
2013-01-21 17:09:00,66.4,59.0,30.17,SE,130,0.3,1.1,77,0.00,,FEW,0.00,WeatherDisplay:10.37,2013-01-21 23:09:00,
2013-01-21 17:14:00,66.3,58.9,30.17,ESE,105,1.5,3.5,77,0.00,,FEW,0.00,WeatherDisplay:10.37,2013-01-21 23:14:00,
2013-01-21 17:19:00,66.0,58.6,30.17,ESE,123,0.7,3.5,77,0.00,,FEW,0.00,WeatherDisplay:10.37,2013-01-21 23:19:00,
2013-01-21 17:24:00,65.9,58.5,30.17,SSE,151,0.4,2.3,77,0.00,,FEW,0.00,WeatherDisplay:10.37,2013-01-21 23:24:00,
2013-01-21 17:29:00,65.6,58.6,30.17,ESE,120,0.6,2.3,78,0.00,,FEW,0.00,WeatherDisplay:10.37,2013-01-21 23:29:00,
2013-01-21 17:34:00,65.1,58.1,30.17,ESE,111,0.4,2.3,78,0.00,,FEW,0.00,WeatherDisplay:10.37,2013-01-21 23:34:00,
2013-01-21 17:39:00,64.5,57.8,30.17,SE,125,0.3,1.1,79,0.00,,FEW,0.00,WeatherDisplay:10.37,2013-01-21 23:39:00,
2013-01-21 17:44:00,63.9,58.0,30.16,ESE,111,0.0,0.0,81,0.00,,FEW,0.00,WeatherDisplay:10.37,2013-01-21 23:44:00,
2013-01-21 17:49:00,63.3,57.7,30.16,ESE,122,0.1,1.1,82,0.00,,FEW,0.00,WeatherDisplay:10.37,2013-01-21 23:49:00,
2013-01-21 17:54:00,62.7,57.8,30.17,ESE,108,0.3,1.1,84,0.00,,FEW,0.00,WeatherDisplay:10.37,2013-01-21 23:54:00,
2013-01-21 17:59:00,62.1,57.5,30.17,ESE,106,0.0,1.1,85,0.00,,FEW,0.00,WeatherDisplay:10.37,2013-01-21 23:59:00,
2013-01-21 18:04:00,61.6,57.4,30.17,ESE,107,0.0,0.0,86,0.00,,FEW,0.00,WeatherDisplay:10.37,2013-01-22 00:04:00,
2013-01-21 18:09:00,61.1,56.9,30.17,ESE,109,0.0,0.0,86,0.00,,FEW,0.00,WeatherDisplay:10.37,2013-01-22 00:09:00,
2013-01-21 18:14:00,60.6,57.0,30.17,ESE,109,0.1,1.1,88,0.00,,FEW,0.00,WeatherDisplay:10.37,2013-01-22 00:14:00,
2013-01-21 18:19:00,60.1,56.5,30.17,ESE,107,0.0,1.1,88,0.00,,FEW,0.00,WeatherDisplay:10.37,2013-01-22 00:19:00,
2013-01-21 18:24:00,59.7,56.5,30.18,ESE,104,0.0,0.0,89,0.00,,FEW,0.00,WeatherDisplay:10.37,2013-01-22 00:24:00,
2013-01-21 18:29:00,59.4,56.5,30.18,ESE,104,0.0,0.0,90,0.00,,FEW,0.00,WeatherDisplay:10.37,2013-01-22 00:29:00,
2013-01-21 18:34:00,59.2,56.3,30.18,ESE,105,0.0,1.1,90,0.00,,FEW,0.00,WeatherDisplay:10.37,2013-01-22 00:34:00,
2013-01-21 18:39:00,58.9,56.3,30.18,ESE,105,0.0,0.0,91,0.00,,FEW,0.00,WeatherDisplay:10.37,2013-01-22 00:39:00,
2013-01-21 18:44:00,58.6,56.0,30.18,ESE,105,0.1,1.1,91,0.00,,FEW,0.00,WeatherDisplay:10.37,2013-01-22 00:44:00,
2013-01-21 18:49:00,58.4,56.1,30.18,ESE,111,0.2,0.0,92,0.00,,FEW,0.00,WeatherDisplay:10.37,2013-01-22 00:49:00,
2013-01-21 18:54:00,58.3,56.0,30.18,ESE,110,0.0,1.1,92,0.00,,FEW,0.00,WeatherDisplay:10.37,2013-01-22 00:54:00,
2013-01-21 18:59:00,58.1,56.1,30.18,ESE,110,0.0,0.0,93,0.00,,FEW,0.00,WeatherDisplay:10.37,2013-01-22 00:59:00,
2013-01-21 19:04:00,57.9,55.9,30.18,ESE,110,0.0,0.0,93,0.00,,FEW,0.00,WeatherDisplay:10.37,2013-01-22 01:04:00,
2013-01-21 19:09:00,57.7,55.7,30.18,ESE,110,0.0,0.0,93,0.00,,FEW,0.00,WeatherDisplay:10.37,2013-01-22 01:09:00,
2013-01-21 19:14:00,57.6,55.6,30.18,ESE,110,0.0,0.0,93,0.00,,FEW,0.00,WeatherDisplay:10.37,2013-01-22 01:14:00,
2013-01-21 19:19:00,57.4,55.7,30.19,ESE,111,0.0,0.0,94,0.00,,FEW,0.00,WeatherDisplay:10.37,2013-01-22 01:19:00,
2013-01-21 19:24:00,57.3,55.6,30.19,ESE,110,0.0,0.0,94,0.00,,FEW,0.00,WeatherDisplay:10.37,2013-01-22 01:24:00,
2013-01-21 19:29:00,57.2,55.5,30.19,ESE,111,0.0,0.0,94,0.00,,FEW,0.00,WeatherDisplay:10.37,2013-01-22 01:29:00,
2013-01-21 19:34:00,57.1,55.4,30.19,ESE,110,0.0,1.1,94,0.00,,FEW,0.00,WeatherDisplay:10.37,2013-01-22 01:34:00,
2013-01-21 19:39:00,57.0,55.6,30.19,ESE,110,0.0,0.0,95,0.00,,FEW,0.00,WeatherDisplay:10.37,2013-01-22 01:39:00,
2013-01-21 19:44:00,56.9,55.5,30.19,ESE,110,0.0,0.0,95,0.00,,FEW,0.00,WeatherDisplay:10.37,2013-01-22 01:44:00,
2013-01-21 19:49:00,56.7,55.3,30.20,ESE,111,0.0,0.0,95,0.00,,FEW,0.00,WeatherDisplay:10.37,2013-01-22 01:49:00,
2013-01-21 19:54:00,56.6,55.2,30.20,ESE,110,0.0,0.0,95,0.00,,FEW,0.00,WeatherDisplay:10.37,2013-01-22 01:54:00,
2013-01-21 19:59:00,56.5,55.1,30.20,ESE,111,0.0,0.0,95,0.00,,FEW,0.00,WeatherDisplay:10.37,2013-01-22 01:59:00,
2013-01-21 20:04:00,56.4,55.0,30.20,ESE,110,0.0,0.0,95,0.00,,FEW,0.00,WeatherDisplay:10.37,2013-01-22 02:04:00,
2013-01-21 20:09:00,56.3,54.9,30.20,ESE,111,0.0,0.0,95,0.00,,FEW,0.00,WeatherDisplay:10.37,2013-01-22 02:09:00,
2013-01-21 20:14:00,56.2,54.8,30.20,ESE,111,0.0,0.0,95,0.00,,FEW,0.00,WeatherDisplay:10.37,2013-01-22 02:14:00,
2013-01-21 20:19:00,56.1,56.1,30.20,ESE,110,0.0,0.0,100,0.00,,FEW,0.00,WeatherDisplay:10.37,2013-01-22 02:19:00,
2013-01-21 20:24:00,56.2,56.2,30.20,ESE,118,0.0,1.1,100,0.00,,FEW,0.00,WeatherDisplay:10.37,2013-01-22 02:24:00,
2013-01-21 20:29:00,56.2,56.2,30.21,ESE,118,0.0,1.1,100,0.00,,FEW,0.00,WeatherDisplay:10.37,2013-01-22 02:29:00,
2013-01-21 20:34:00,56.2,56.2,30.21,ESE,118,0.0,0.0,100,0.00,,FEW,0.00,WeatherDisplay:10.37,2013-01-22 02:34:00,
2013-01-21 20:39:00,56.3,56.3,30.21,ESE,117,0.0,0.0,100,0.00,,FEW,0.00,WeatherDisplay:10.37,2013-01-22 02:39:00,
2013-01-21 20:44:00,56.3,56.3,30.21,ESE,118,0.0,0.0,100,0.00,,FEW,0.00,WeatherDisplay:10.37,2013-01-22 02:44:00,
2013-01-21 20:49:00,56.4,56.4,30.21,ESE,118,0.0,0.0,100,0.00,,FEW,0.00,WeatherDisplay:10.37,2013-01-22 02:49:00,
2013-01-21 20:54:00,56.4,56.4,30.21,ESE,118,0.0,1.1,100,0.00,,FEW,0.00,WeatherDisplay:10.37,2013-01-22 02:54:00,
2013-01-21 20:59:00,56.4,56.4,30.21,ESE,106,0.0,1.1,100,0.00,,FEW,0.00,WeatherDisplay:10.37,2013-01-22 02:59:00,
2013-01-21 21:04:00,56.5,56.5,30.21,ESE,123,0.1,1.1,100,0.00,CLR,FEW,0.00,WeatherDisplay:10.37,2013-01-22 03:04:00,
2013-01-21 21:09:00,56.5,56.5,30.21,ESE,119,0.2,1.1,100,0.00,CLR,FEW,0.00,WeatherDisplay:10.37,2013-01-22 03:09:00,
2013-01-21 21:14:00,56.5,56.5,30.21,ESE,114,0.3,1.1,100,0.00,CLR,FEW,0.00,WeatherDisplay:10.37,2013-01-22 03:14:00,
2013-01-21 21:19:00,56.5,56.5,30.21,East,95,0.2,1.1,100,0.00,CLR,FEW,0.00,WeatherDisplay:10.37,2013-01-22 03:19:00,
2013-01-21 21:24:00,56.6,56.6,30.21,ESE,114,0.1,1.1,100,0.00,CLR,FEW,0.00,WeatherDisplay:10.37,2013-01-22 03:24:00,
2013-01-21 21:29:00,56.5,56.5,30.21,ESE,106,0.0,1.1,100,0.00,CLR,FEW,0.00,WeatherDisplay:10.37,2013-01-22 03:29:00,
2013-01-21 21:34:00,56.4,56.4,30.21,ESE,112,0.0,0.0,100,0.00,CLR,FEW,0.00,WeatherDisplay:10.37,2013-01-22 03:34:00,
2013-01-21 21:39:00,56.4,56.4,30.22,ESE,116,0.0,1.1,100,0.00,CLR,FEW,0.00,WeatherDisplay:10.37,2013-01-22 03:39:00,
2013-01-21 21:44:00,56.5,56.5,30.21,ESE,116,0.0,0.0,100,0.00,CLR,FEW,0.00,WeatherDisplay:10.37,2013-01-22 03:44:00,
2013-01-21 21:49:00,56.6,56.6,30.21,ESE,116,0.0,0.0,100,0.00,CLR,FEW,0.00,WeatherDisplay:10.37,2013-01-22 03:49:00,
2013-01-21 21:54:00,56.6,56.6,30.21,ESE,116,0.0,0.0,100,0.00,CLR,FEW,0.00,WeatherDisplay:10.37,2013-01-22 03:54:00,
2013-01-21 21:59:00,56.5,56.5,30.21,ESE,116,0.0,1.1,100,0.00,CLR,FEW,0.00,WeatherDisplay:10.37,2013-01-22 03:59:00,
2013-01-21 22:04:00,56.4,56.4,30.21,ESE,116,0.0,0.0,100,0.00,,FEW,0.00,WeatherDisplay:10.37,2013-01-22 04:04:00,
2013-01-21 22:09:00,56.2,56.2,30.22,ESE,116,0.0,0.0,100,0.00,,FEW,0.00,WeatherDisplay:10.37,2013-01-22 04:09:00,
2013-01-21 22:14:00,56.1,56.1,30.22,ESE,116,0.0,0.0,100,0.00,,FEW,0.00,WeatherDisplay:10.37,2013-01-22 04:14:00,
2013-01-21 22:19:00,56.1,56.1,30.22,ESE,116,0.0,0.0,100,0.00,,FEW,0.00,WeatherDisplay:10.37,2013-01-22 04:19:00,
2013-01-21 22:24:00,56.1,56.1,30.22,ESE,114,0.1,1.1,100,0.00,,FEW,0.00,WeatherDisplay:10.37,2013-01-22 04:24:00,
2013-01-21 22:29:00,56.0,56.0,30.21,ESE,113,0.0,0.0,100,0.00,,FEW,0.00,WeatherDisplay:10.37,2013-01-22 04:29:00,
2013-01-21 22:34:00,56.0,56.0,30.22,ESE,113,0.2,1.1,100,0.00,,FEW,0.00,WeatherDisplay:10.37,2013-01-22 04:34:00,
2013-01-21 22:39:00,55.9,55.9,30.22,ESE,110,0.0,1.1,100,0.00,,FEW,0.00,WeatherDisplay:10.37,2013-01-22 04:39:00,
2013-01-21 22:44:00,55.9,55.9,30.21,ESE,110,0.0,0.0,100,0.00,,FEW,0.01,WeatherDisplay:10.37,2013-01-22 04:44:00,
2013-01-21 22:49:00,55.9,55.9,30.22,ESE,122,0.1,0.0,100,0.01,RA,FEW,0.01,WeatherDisplay:10.37,2013-01-22 04:49:00,
2013-01-21 22:54:00,55.9,55.9,30.21,ESE,121,0.0,1.1,100,0.01,RA,FEW,0.01,WeatherDisplay:10.37,2013-01-22 04:54:00,
2013-01-21 22:59:00,55.9,55.9,30.21,ESE,121,0.2,1.1,100,0.01,,FEW,0.01,WeatherDisplay:10.37,2013-01-22 04:59:00,
2013-01-21 23:00:00,55.9,55.9,30.21,ESE,122,0.2,1.1,100,0.01,,FEW,0.01,WeatherDisplay:10.37,2013-01-22 05:00:00,
2013-01-21 23:01:00,55.9,55.9,30.21,ESE,122,0.1,1.1,100,0.01,,FEW,0.01,WeatherDisplay:10.37,2013-01-22 05:01:00,
2013-01-21 23:07:00,56.0,56.0,30.21,ESE,111,0.1,1.1,100,0.01,,FEW,0.01,WeatherDisplay:10.37,2013-01-22 05:07:00,
2013-01-21 23:12:00,56.0,56.0,30.21,ESE,120,0.2,1.1,100,0.01,,FEW,0.01,WeatherDisplay:10.37,2013-01-22 05:12:00,
2013-01-21 23:17:00,56.1,56.1,30.21,SE,126,0.0,1.1,100,0.01,,FEW,0.01,WeatherDisplay:10.37,2013-01-22 05:17:00,
2013-01-21 23:22:00,56.2,56.2,30.21,SE,127,0.0,1.1,100,0.01,,FEW,0.01,WeatherDisplay:10.37,2013-01-22 05:22:00,
2013-01-21 23:27:00,56.3,56.3,30.21,ESE,123,0.7,2.3,100,0.01,,FEW,0.01,WeatherDisplay:10.37,2013-01-22 05:27:00,
2013-01-21 23:32:00,56.4,56.4,30.21,ESE,112,1.0,1.1,100,0.01,,FEW,0.01,WeatherDisplay:10.37,2013-01-22 05:32:00,
2013-01-21 23:37:00,56.4,56.4,30.21,SE,137,0.5,1.1,100,0.01,,FEW,0.01,WeatherDisplay:10.37,2013-01-22 05:37:00,
2013-01-21 23:42:00,56.4,56.4,30.21,SE,137,0.0,1.1,100,0.01,,FEW,0.01,WeatherDisplay:10.37,2013-01-22 05:42:00,
2013-01-21 23:47:00,56.4,56.4,30.21,SE,137,0.1,1.1,100,0.00,,FEW,0.01,WeatherDisplay:10.37,2013-01-22 05:47:00,
2013-01-21 23:52:00,56.4,56.4,30.21,SE,138,0.1,1.1,100,0.00,,FEW,0.01,WeatherDisplay:10.37,2013-01-22 05:52:00,
2013-01-21 23:57:00,56.5,56.5,30.21,SE,132,0.0,0.0,100,0.00,,FEW,0.01,WeatherDisplay:10.37,2013-01-22 05:57:00,